Time;durP1;ratioP1;P1;durP2;ratioP2;P2;SDS_P1;SDS_P2;PMS_P1;PMS_P2;Temp;Humidity;BMP_temperature;BMP_pressure;BME280_temperature;BME280_humidity;BME280_pressure;Samples;Min_cycle;Max_cycle;Signal;HPM_P1;HPM_P2
2022/03/03 00:01:38;;;;;;;4.18;2.10;;;10.30;85.70;;;;;;5133287;27;20023;-81
2022/03/03 00:04:04;;;;;;;3.42;1.80;;;10.30;85.60;;;;;;5133398;27;20391;-81
2022/03/03 00:06:29;;;;;;;4.45;2.00;;;10.40;85.70;;;;;;5113497;27;20055;-81
2022/03/03 00:08:55;;;;;;;3.60;1.92;;;10.40;85.40;;;;;;5134551;27;20471;-81
2022/03/03 00:11:21;;;;;;;3.65;1.75;;;10.50;85.50;;;;;;5134128;27;20516;-81
2022/03/03 00:13:46;;;;;;;3.97;1.77;;;10.50;86.20;;;;;;5133085;27;20099;-81
2022/03/03 00:16:13;;;;;;;4.00;1.80;;;10.50;86.20;;;;;;5133140;27;20423;-81
2022/03/03 00:18:39;;;;;;;3.85;1.90;;;10.60;86.00;;;;;;5133020;27;20058;-80
2022/03/03 00:21:04;;;;;;;2.97;1.80;;;10.60;86.10;;;;;;5114821;27;20051;-80
2022/03/03 00:23:30;;;;;;;4.00;1.67;;;10.70;86.30;;;;;;5135116;27;20027;-80
2022/03/03 00:25:56;;;;;;;2.50;1.80;;;10.70;86.70;;;;;;5132086;27;20048;-81
2022/03/03 00:28:22;;;;;;;4.85;2.08;;;10.80;86.50;;;;;;5124102;27;20019;-80
2022/03/03 00:30:47;;;;;;;2.78;1.67;;;10.70;86.70;;;;;;5115467;27;20050;-80
2022/03/03 00:33:13;;;;;;;4.50;1.90;;;10.80;86.60;;;;;;5133158;27;20015;-80
2022/03/03 00:35:39;;;;;;;4.68;2.10;;;10.80;86.80;;;;;;5135159;27;20031;-80
2022/03/03 00:38:05;;;;;;;3.58;2.05;;;10.80;87.00;;;;;;5132504;27;20048;-80
2022/03/03 00:40:31;;;;;;;3.65;2.20;;;10.80;87.00;;;;;;5132955;27;20124;-80
2022/03/03 00:42:56;;;;;;;4.75;2.60;;;10.90;87.20;;;;;;5132457;27;20098;-80
2022/03/03 00:45:22;;;;;;;5.63;2.63;;;10.90;87.30;;;;;;5130773;27;22292;-80
2022/03/03 00:47:49;;;;;;;6.22;3.13;;;10.90;87.20;;;;;;5116283;27;20031;-79
2022/03/03 00:50:15;;;;;;;6.57;3.15;;;10.90;87.20;;;;;;5132825;27;20019;-79
2022/03/03 00:52:41;;;;;;;6.25;3.25;;;11.00;87.40;;;;;;5132302;27;20023;-80
2022/03/03 00:55:07;;;;;;;6.93;3.88;;;11.00;87.50;;;;;;5132605;27;20019;-79
2022/03/03 00:57:33;;;;;;;6.88;3.70;;;11.00;87.70;;;;;;5132294;27;20035;-79
2022/03/03 01:00:00;;;;;;;5.38;3.92;;;11.00;88.20;;;;;;5113908;27;20369;-79
2022/03/03 01:02:25;;;;;;;7.50;3.75;;;11.00;87.70;;;;;;5134070;27;20034;-80
2022/03/03 01:04:51;;;;;;;6.03;3.85;;;11.00;87.70;;;;;;5132108;27;20023;-80
2022/03/03 01:07:17;;;;;;;7.03;4.00;;;11.00;87.80;;;;;;5131919;27;20027;-80
2022/03/03 01:33:17;;;;;;;5.15;3.60;;;11.00;87.70;;;;;;5115999;27;20066;-80
2022/03/03 01:35:42;;;;;;;4.95;3.67;;;11.10;88.70;;;;;;5133417;27;20432;-81
2022/03/03 01:38:09;;;;;;;6.82;3.72;;;11.10;88.40;;;;;;5113293;27;20042;-80
2022/03/03 01:40:35;;;;;;;5.38;3.47;;;11.10;88.60;;;;;;5131734;27;20072;-80
2022/03/03 01:43:00;;;;;;;4.53;3.60;;;11.10;88.60;;;;;;5131546;27;20027;-81
2022/03/03 01:45:26;;;;;;;6.43;4.00;;;11.10;89.00;;;;;;5131862;27;20031;-80
2022/03/03 01:47:52;;;;;;;4.75;3.40;;;11.10;88.80;;;;;;5114431;27;20648;-81
2022/03/03 01:50:17;;;;;;;5.88;3.80;;;11.10;89.00;;;;;;5130659;27;20033;-81
2022/03/03 01:52:43;;;;;;;6.28;3.55;;;11.10;88.80;;;;;;5131511;27;20487;-80
2022/03/03 01:55:10;;;;;;;5.10;3.63;;;11.10;89.30;;;;;;5131517;27;20395;-80
2022/03/03 01:57:36;;;;;;;6.38;3.60;;;11.10;88.80;;;;;;5131450;27;20505;-80
2022/03/03 02:00:06;;;;;;;4.90;3.72;;;11.10;88.90;;;;;;5131640;27;20019;-80
2022/03/03 02:02:32;;;;;;;4.15;3.13;;;11.10;89.00;;;;;;5132007;27;20019;-80
2022/03/03 02:04:57;;;;;;;5.03;3.50;;;11.10;89.70;;;;;;5129589;27;20114;-80
2022/03/03 02:07:23;;;;;;;5.22;3.88;;;11.10;89.10;;;;;;5131379;27;20072;-80
2022/03/03 02:09:49;;;;;;;5.13;3.72;;;11.10;89.20;;;;;;5131411;27;20077;-79
2022/03/03 02:12:14;;;;;;;5.57;3.35;;;11.10;89.80;;;;;;5112833;27;20031;-80
2022/03/03 02:14:46;;;;;;;3.85;3.13;;;11.10;89.00;;;;;;5115121;27;20092;-81
2022/03/03 02:17:12;;;;;;;5.20;3.60;;;11.10;89.10;;;;;;5130945;27;20031;-81
2022/03/03 02:19:38;;;;;;;4.65;2.78;;;11.10;89.20;;;;;;5130972;27;20027;-80
2022/03/03 02:22:04;;;;;;;4.53;3.17;;;11.10;89.20;;;;;;5131154;27;20065;-80
2022/03/03 02:24:30;;;;;;;4.38;3.33;;;11.10;89.20;;;;;;5112721;27;20518;-80
2022/03/03 02:26:58;;;;;;;4.85;3.17;;;11.10;89.10;;;;;;5132208;27;20079;-80
2022/03/03 02:29:23;;;;;;;3.97;3.08;;;11.10;89.00;;;;;;5130820;28;20152;-80
2022/03/03 02:31:49;;;;;;;4.30;3.15;;;11.10;89.20;;;;;;5112550;28;20047;-78
2022/03/03 02:34:14;;;;;;;4.40;3.03;;;11.10;89.60;;;;;;5130761;27;20048;-78
2022/03/03 02:36:40;;;;;;;3.92;2.72;;;11.10;89.40;;;;;;5133266;27;20038;-78
2022/03/03 02:39:06;;;;;;;3.03;2.33;;;11.10;89.60;;;;;;5113959;28;20039;-78
2022/03/03 02:41:32;;;;;;;5.00;3.13;;;11.10;90.00;;;;;;5114785;28;20088;-78
2022/03/03 02:43:59;;;;;;;3.42;2.72;;;11.00;89.40;;;;;;5129290;27;20042;-78
2022/03/03 02:46:25;;;;;;;4.40;2.63;;;11.10;89.70;;;;;;5130862;28;20122;-78
2022/03/03 02:48:51;;;;;;;4.20;2.50;;;11.10;89.70;;;;;;5130521;27;20020;-78
2022/03/03 02:51:17;;;;;;;3.05;2.60;;;11.00;89.70;;;;;;5131163;27;20024;-78
2022/03/03 02:53:42;;;;;;;2.58;2.10;;;11.00;89.60;;;;;;5132981;27;20046;-79
2022/03/03 02:56:09;;;;;;;3.72;2.47;;;11.00;89.80;;;;;;5130763;27;20050;-78
2022/03/03 02:58:34;;;;;;;4.53;2.60;;;11.00;90.00;;;;;;5130604;28;20074;-78
2022/03/03 03:01:03;;;;;;;2.78;2.22;;;11.00;90.10;;;;;;5130455;27;20051;-80
2022/03/03 03:03:28;;;;;;;3.75;2.35;;;11.00;89.90;;;;;;5130862;27;20491;-80
2022/03/03 03:05:54;;;;;;;3.70;2.10;;;10.90;90.10;;;;;;5112290;27;20031;-80
2022/03/03 03:08:20;;;;;;;2.75;2.13;;;10.90;90.20;;;;;;5130840;27;20031;-81
2022/03/03 03:10:46;;;;;;;4.03;2.10;;;10.90;90.20;;;;;;5134115;27;20027;-80
2022/03/03 03:13:14;;;;;;;3.50;2.20;;;10.90;90.10;;;;;;5134005;27;20023;-80
2022/03/03 03:15:41;;;;;;;4.88;2.45;;;10.90;90.20;;;;;;5133834;27;20046;-80
2022/03/03 03:18:15;;;;;;;3.42;2.25;;;10.90;90.20;;;;;;5134227;27;20062;-80
2022/03/03 03:20:43;;;;;;;4.18;2.10;;;10.90;90.10;;;;;;5136038;27;20049;-80
2022/03/03 03:23:10;;;;;;;3.60;2.20;;;10.80;90.20;;;;;;5132617;27;20034;-80
2022/03/03 03:25:45;;;;;;;2.83;2.28;;;10.80;90.30;;;;;;5115517;27;20023;-80
2022/03/03 03:28:13;;;;;;;3.85;2.38;;;10.80;90.40;;;;;;5133793;27;20027;-80
2022/03/03 03:30:40;;;;;;;2.65;2.10;;;10.80;90.30;;;;;;5133690;27;20115;-79
2022/03/03 03:33:06;;;;;;;4.30;2.25;;;10.80;90.40;;;;;;5133677;27;20508;-80
2022/03/03 03:35:32;;;;;;;2.92;1.90;;;10.80;90.50;;;;;;5136068;27;20052;-80
2022/03/03 03:37:58;;;;;;;2.53;1.88;;;10.80;90.40;;;;;;5115070;27;20042;-80
2022/03/03 03:40:24;;;;;;;3.70;2.20;;;10.80;90.30;;;;;;5115084;27;20175;-80
2022/03/03 03:42:49;;;;;;;3.20;1.80;;;10.80;90.40;;;;;;5133554;27;20531;-80
2022/03/03 03:45:16;;;;;;;3.50;2.03;;;10.90;90.40;;;;;;5132021;27;20742;-81
2022/03/03 03:47:42;;;;;;;2.28;1.90;;;10.90;90.30;;;;;;5135477;27;20019;-81
2022/03/03 03:50:10;;;;;;;2.90;1.80;;;11.00;90.40;;;;;;5115100;27;20061;-80
2022/03/03 03:52:37;;;;;;;3.33;2.00;;;11.00;90.30;;;;;;5133198;27;20031;-80
2022/03/03 03:55:04;;;;;;;3.58;2.30;;;10.90;90.30;;;;;;5133608;27;20087;-81
2022/03/03 03:57:31;;;;;;;2.55;1.70;;;10.90;90.20;;;;;;5114741;27;20035;-80
2022/03/03 03:59:57;;;;;;;3.40;1.63;;;10.90;90.20;;;;;;5133768;27;20058;-81
2022/03/03 04:02:22;;;;;;;3.13;1.80;;;10.90;90.30;;;;;;5132841;27;20559;-80
2022/03/03 04:04:48;;;;;;;3.03;1.65;;;10.90;90.30;;;;;;5133017;27;20038;-81
2022/03/03 04:07:14;;;;;;;2.95;2.03;;;10.90;90.30;;;;;;5132877;27;20027;-80
2022/03/03 04:09:39;;;;;;;2.53;1.70;;;10.90;90.50;;;;;;5133606;27;20023;-80
2022/03/03 04:12:06;;;;;;;3.38;1.98;;;10.90;90.40;;;;;;5133001;27;20048;-80
2022/03/03 04:14:31;;;;;;;2.60;1.80;;;10.90;90.60;;;;;;5134720;27;20487;-80
2022/03/03 04:16:57;;;;;;;3.42;2.10;;;10.90;90.50;;;;;;5114275;27;20053;-80
2022/03/03 04:19:23;;;;;;;2.90;1.80;;;10.90;90.50;;;;;;5132214;27;20453;-80
2022/03/03 04:21:49;;;;;;;2.67;1.73;;;11.00;90.50;;;;;;5132674;27;20034;-81
2022/03/03 04:24:15;;;;;;;1.95;1.40;;;10.90;90.60;;;;;;5131859;27;20054;-80
2022/03/03 04:26:41;;;;;;;2.03;1.55;;;11.00;90.80;;;;;;5134325;27;20023;-81
2022/03/03 04:29:06;;;;;;;3.05;1.42;;;11.00;90.50;;;;;;5132160;27;20016;-79
2022/03/03 04:31:32;;;;;;;2.30;1.50;;;11.00;90.70;;;;;;5132469;27;20033;-79
2022/03/03 04:33:58;;;;;;;4.35;1.70;;;11.00;90.60;;;;;;5114162;27;20506;-79
2022/03/03 04:36:24;;;;;;;3.83;1.60;;;11.00;90.60;;;;;;5132887;27;20031;-79
2022/03/03 04:38:50;;;;;;;3.95;1.70;;;11.00;90.70;;;;;;5115609;27;20575;-79
2022/03/03 04:41:17;;;;;;;3.40;1.48;;;11.00;90.80;;;;;;5131790;27;20027;-80
2022/03/03 04:43:43;;;;;;;3.47;1.55;;;11.00;90.80;;;;;;5131748;27;20043;-80
2022/03/03 04:46:08;;;;;;;3.00;1.65;;;11.00;90.70;;;;;;5114008;27;20031;-80
2022/03/03 04:48:35;;;;;;;2.13;1.42;;;11.00;90.70;;;;;;5132264;27;20027;-80
2022/03/03 04:51:01;;;;;;;2.90;1.42;;;11.00;90.70;;;;;;5132806;27;20090;-81
2022/03/03 04:53:27;;;;;;;2.45;1.48;;;10.90;90.80;;;;;;5115548;27;20039;-81
2022/03/03 04:55:53;;;;;;;3.15;1.40;;;11.00;90.80;;;;;;5131509;27;20018;-79
2022/03/03 04:58:19;;;;;;;4.40;1.90;;;11.00;90.80;;;;;;5113110;27;20047;-80
2022/03/03 05:00:45;;;;;;;5.07;2.20;;;11.00;91.00;;;;;;5131886;27;20023;-80
2022/03/03 05:03:11;;;;;;;4.03;1.88;;;10.90;90.80;;;;;;5131854;27;20053;-79
2022/03/03 05:05:36;;;;;;;5.70;2.00;;;10.90;90.90;;;;;;5133024;27;20098;-79
2022/03/03 05:08:02;;;;;;;2.03;1.70;;;10.90;90.80;;;;;;5131671;27;20033;-79
2022/03/03 05:10:28;;;;;;;2.65;1.70;;;11.00;90.90;;;;;;5131639;27;20031;-78
2022/03/03 05:12:53;;;;;;;2.70;1.80;;;11.00;91.00;;;;;;5131486;27;20035;-79
2022/03/03 05:15:19;;;;;;;3.75;1.70;;;11.00;90.90;;;;;;5132038;27;20026;-78
2022/03/03 05:17:45;;;;;;;3.53;2.10;;;11.00;91.00;;;;;;5133810;27;20084;-79
2022/03/03 05:20:12;;;;;;;3.15;2.00;;;11.00;91.00;;;;;;5130201;27;20479;-79
2022/03/03 05:22:39;;;;;;;3.25;1.90;;;10.90;90.80;;;;;;5131578;27;20046;-79
2022/03/03 05:25:05;;;;;;;3.63;2.10;;;11.00;91.00;;;;;;5113076;27;20031;-79
2022/03/03 05:27:33;;;;;;;5.00;2.83;;;11.00;90.90;;;;;;5131322;27;20019;-79
2022/03/03 05:29:59;;;;;;;5.15;2.53;;;10.90;90.70;;;;;;5132121;27;20029;-79
2022/03/03 05:32:25;;;;;;;4.40;2.67;;;11.00;90.90;;;;;;5132643;27;20019;-79
2022/03/03 05:34:51;;;;;;;4.93;2.95;;;11.00;91.40;;;;;;5113302;27;20023;-79
2022/03/03 05:37:25;;;;;;;4.82;3.60;;;11.00;90.80;;;;;;5131221;27;20035;-79
2022/03/03 05:39:52;;;;;;;5.75;3.60;;;11.00;90.80;;;;;;5112903;27;20027;-80
2022/03/03 05:42:19;;;;;;;5.43;3.60;;;11.00;90.80;;;;;;5113571;27;20418;-79
2022/03/03 05:44:46;;;;;;;5.72;3.72;;;10.90;90.80;;;;;;5129174;27;20436;-80
2022/03/03 05:47:12;;;;;;;8.32;4.43;;;10.90;90.80;;;;;;5131177;27;20071;-80
2022/03/03 05:49:39;;;;;;;5.82;4.10;;;10.90;90.90;;;;;;5131148;27;20383;-79
2022/03/03 05:52:05;;;;;;;6.15;4.32;;;11.00;90.90;;;;;;5131092;27;20011;-79
2022/03/03 05:54:31;;;;;;;6.35;4.70;;;11.00;91.00;;;;;;5131074;27;20515;-79
2022/03/03 05:56:59;;;;;;;6.28;4.75;;;11.00;90.90;;;;;;5113220;27;20027;-79
2022/03/03 05:59:25;;;;;;;6.53;4.63;;;11.00;90.90;;;;;;5130741;27;20031;-79
2022/03/03 06:01:51;;;;;;;6.60;4.47;;;11.00;91.00;;;;;;5112531;27;20027;-80
2022/03/03 06:04:16;;;;;;;8.15;4.38;;;11.00;90.90;;;;;;5130896;27;20021;-79
2022/03/03 06:06:53;;;;;;;7.57;4.65;;;11.00;91.00;;;;;;5112794;27;20023;-79
2022/03/03 06:09:25;;;;;;;7.47;4.60;;;11.00;91.00;;;;;;5096759;27;20030;-80
2022/03/03 06:12:15;;;;;;;6.70;4.63;;;11.00;90.90;;;;;;5131930;27;20015;-80
2022/03/03 06:15:03;;;;;;;7.63;4.95;;;11.00;90.80;;;;;;5132566;27;20031;-79
2022/03/03 06:17:30;;;;;;;7.13;5.15;;;11.00;91.00;;;;;;5130673;27;20588;-79
2022/03/03 06:20:00;;;;;;;6.18;4.65;;;10.90;91.00;;;;;;5112160;28;20031;-79
2022/03/03 06:22:26;;;;;;;7.53;4.75;;;11.00;91.10;;;;;;5110862;27;20050;-80
2022/03/03 06:24:52;;;;;;;7.82;5.05;;;10.90;91.20;;;;;;5130317;27;20031;-79
2022/03/03 06:27:17;;;;;;;7.28;5.13;;;10.90;91.30;;;;;;5130697;27;20020;-80
2022/03/03 06:29:43;;;;;;;6.93;5.03;;;10.90;91.30;;;;;;5132575;27;20035;-80
2022/03/03 06:32:11;;;;;;;8.57;4.78;;;10.90;91.30;;;;;;5130493;27;20027;-80
2022/03/03 06:34:37;;;;;;;7.18;4.68;;;10.90;91.30;;;;;;5130340;28;20023;-80
2022/03/03 06:37:03;;;;;;;8.40;5.25;;;10.90;91.60;;;;;;5129081;27;20031;-80
2022/03/03 06:39:29;;;;;;;7.20;4.63;;;10.80;91.50;;;;;;5130461;27;20132;-79
2022/03/03 06:41:54;;;;;;;8.07;5.00;;;10.90;91.60;;;;;;5131270;28;20500;-79
2022/03/03 06:44:20;;;;;;;6.88;4.63;;;10.80;91.60;;;;;;5134008;27;20046;-79
2022/03/03 06:46:47;;;;;;;6.70;4.82;;;10.80;91.60;;;;;;5115856;27;20046;-79
2022/03/03 06:49:13;;;;;;;8.70;4.80;;;10.80;91.90;;;;;;5134592;27;20023;-79
2022/03/03 06:51:41;;;;;;;5.93;4.22;;;10.80;91.70;;;;;;5134617;27;20031;-79
2022/03/03 06:54:13;;;;;;;5.93;4.50;;;10.80;91.80;;;;;;5134224;27;20023;-80
2022/03/03 06:56:47;;;;;;;6.40;4.35;;;10.80;91.70;;;;;;5136290;27;20016;-79
2022/03/03 06:59:18;;;;;;;6.45;4.20;;;10.80;91.70;;;;;;5133049;27;20391;-79
2022/03/03 07:01:47;;;;;;;6.80;4.03;;;10.80;91.80;;;;;;5132697;27;20023;-80
2022/03/03 07:04:14;;;;;;;5.68;3.85;;;10.80;91.90;;;;;;5134082;27;20015;-79
2022/03/03 07:06:41;;;;;;;5.72;3.88;;;10.90;92.00;;;;;;5116243;27;20043;-79
2022/03/03 07:09:08;;;;;;;5.13;3.53;;;10.90;91.80;;;;;;5133887;27;20056;-80
2022/03/03 07:11:34;;;;;;;4.32;2.97;;;10.90;91.80;;;;;;5136170;27;20360;-80
2022/03/03 07:14:00;;;;;;;5.07;3.47;;;10.90;91.80;;;;;;5133483;27;20015;-79
2022/03/03 07:16:55;;;;;;;5.40;3.30;;;10.90;91.80;;;;;;5132498;27;20034;-79
2022/03/03 07:19:26;;;;;;;5.15;2.88;;;11.00;91.70;;;;;;5133803;27;20035;-79
2022/03/03 07:22:17;;;;;;;6.47;3.15;;;11.00;91.70;;;;;;5134086;27;20050;-79
2022/03/03 07:24:51;;;;;;;4.50;2.85;;;11.00;91.60;;;;;;5134455;27;20027;-77
2022/03/03 07:27:20;;;;;;;4.82;2.75;;;11.00;91.70;;;;;;5117923;27;20055;-79
2022/03/03 07:29:50;;;;;;;3.78;2.67;;;11.10;91.80;;;;;;5132334;27;20019;-79
2022/03/03 07:32:17;;;;;;;3.42;2.65;;;11.10;91.80;;;;;;5134945;27;20422;-79
2022/03/03 07:34:50;;;;;;;4.75;2.88;;;11.10;91.80;;;;;;5134043;27;20103;-79
2022/03/03 07:37:18;;;;;;;6.95;2.70;;;11.10;91.90;;;;;;5133644;27;20040;-79
2022/03/03 07:39:45;;;;;;;5.50;2.97;;;11.10;92.00;;;;;;5131540;27;20031;-80
2022/03/03 07:42:13;;;;;;;3.67;2.80;;;11.20;92.10;;;;;;5133954;27;20564;-80
2022/03/03 07:44:39;;;;;;;4.22;2.88;;;11.20;91.80;;;;;;5135892;27;20412;-78
2022/03/03 07:47:06;;;;;;;5.28;3.00;;;11.30;92.10;;;;;;5133648;27;20067;-79
2022/03/03 07:49:33;;;;;;;5.05;2.72;;;11.30;92.00;;;;;;5133601;27;20045;-80
2022/03/03 07:51:59;;;;;;;4.07;2.90;;;11.40;91.90;;;;;;5133270;27;20115;-80
2022/03/03 07:54:25;;;;;;;3.88;2.42;;;11.40;91.80;;;;;;5132113;27;20102;-80
2022/03/03 07:56:56;;;;;;;4.93;3.25;;;11.50;91.70;;;;;;5135093;27;20106;-80
2022/03/03 07:59:35;;;;;;;4.00;2.75;;;11.50;91.70;;;;;;5134541;27;20035;-79
2022/03/03 08:02:03;;;;;;;4.65;2.78;;;11.60;91.90;;;;;;5133623;27;20506;-79
2022/03/03 08:04:31;;;;;;;5.65;3.10;;;11.50;91.70;;;;;;5132800;27;20511;-80
2022/03/03 08:07:08;;;;;;;4.30;2.50;;;11.60;91.80;;;;;;5132901;27;20544;-78
2022/03/03 08:09:34;;;;;;;5.47;3.15;;;11.70;91.80;;;;;;5133108;27;20023;-79
2022/03/03 08:12:05;;;;;;;3.97;2.55;;;11.80;91.80;;;;;;5133310;27;20050;-77
2022/03/03 08:14:32;;;;;;;4.63;2.70;;;11.90;91.70;;;;;;5134362;27;20019;-78
2022/03/03 08:16:58;;;;;;;3.20;2.67;;;11.90;91.60;;;;;;5133099;27;20068;-78
2022/03/03 08:19:24;;;;;;;4.90;2.60;;;11.90;91.50;;;;;;5132882;27;20429;-78
2022/03/03 08:21:50;;;;;;;4.97;2.60;;;11.90;91.50;;;;;;5132582;27;20027;-78
2022/03/03 08:24:16;;;;;;;2.78;2.13;;;11.90;91.40;;;;;;5111868;27;20509;-78
2022/03/03 08:26:44;;;;;;;4.90;2.80;;;12.00;91.30;;;;;;5134919;27;20098;-78
2022/03/03 08:29:10;;;;;;;4.05;2.63;;;11.90;91.50;;;;;;5132009;27;20085;-78
2022/03/03 08:31:39;;;;;;;4.47;2.63;;;11.90;91.30;;;;;;5133005;27;20019;-78
2022/03/03 08:34:20;;;;;;;4.55;2.80;;;11.90;91.20;;;;;;5130743;27;20083;-78
2022/03/03 08:37:00;;;;;;;3.53;2.28;;;12.00;91.30;;;;;;5112771;27;20437;-77
2022/03/03 08:39:28;;;;;;;4.30;2.47;;;12.00;91.10;;;;;;5132055;27;20134;-77
2022/03/03 08:42:01;;;;;;;2.97;2.30;;;12.00;91.10;;;;;;5134421;27;20034;-81
2022/03/03 08:44:33;;;;;;;3.67;2.38;;;12.00;91.00;;;;;;5134143;27;20046;-80
2022/03/03 08:47:01;;;;;;;4.13;2.45;;;11.90;90.90;;;;;;5128697;27;20088;-79
2022/03/03 08:49:33;;;;;;;5.57;3.05;;;11.90;91.00;;;;;;5130243;27;20109;-79
2022/03/03 08:52:00;;;;;;;3.22;2.38;;;11.90;91.20;;;;;;5131108;27;20015;-79
2022/03/03 08:54:25;;;;;;;4.57;2.08;;;11.90;91.10;;;;;;5123641;27;20038;-80
2022/03/03 08:56:51;;;;;;;4.38;2.85;;;11.90;91.20;;;;;;5131872;27;20408;-79
2022/03/03 08:59:17;;;;;;;6.40;3.30;;;11.90;91.20;;;;;;5129819;27;20114;-79
2022/03/03 09:01:43;;;;;;;5.03;2.88;;;11.90;91.20;;;;;;5131033;27;20410;-79
2022/03/03 09:04:08;;;;;;;4.97;3.20;;;11.90;91.10;;;;;;5132181;27;20027;-79
2022/03/03 09:06:34;;;;;;;5.03;2.70;;;11.90;91.30;;;;;;5130695;27;21760;-79
2022/03/03 09:09:00;;;;;;;3.90;2.50;;;12.00;91.20;;;;;;5132670;27;20034;-79
2022/03/03 09:11:26;;;;;;;5.90;2.78;;;11.90;91.20;;;;;;5115134;27;20030;-79
2022/03/03 09:13:51;;;;;;;4.75;2.50;;;11.90;91.10;;;;;;5111988;27;20027;-79
2022/03/03 09:16:18;;;;;;;4.22;2.60;;;12.00;91.20;;;;;;5131489;27;20023;-79
2022/03/03 09:18:47;;;;;;;5.57;2.90;;;12.00;91.20;;;;;;5131497;27;20028;-79
2022/03/03 09:21:14;;;;;;;4.95;3.08;;;12.00;91.10;;;;;;5112782;27;20019;-79
2022/03/03 09:23:40;;;;;;;4.68;2.90;;;12.00;91.50;;;;;;5133931;27;20015;-79
2022/03/03 09:26:06;;;;;;;5.82;2.60;;;12.00;91.10;;;;;;5131846;27;20027;-80
2022/03/03 09:28:31;;;;;;;4.78;2.50;;;12.00;91.10;;;;;;5131598;27;20019;-79
2022/03/03 09:30:57;;;;;;;5.63;2.72;;;12.00;91.10;;;;;;5131535;27;20011;-79
2022/03/03 09:33:23;;;;;;;5.18;3.25;;;12.00;91.10;;;;;;5131310;27;20399;-79
2022/03/03 09:35:50;;;;;;;7.35;2.75;;;12.00;91.10;;;;;;5114944;27;20055;-79
2022/03/03 09:38:16;;;;;;;4.40;2.78;;;12.00;91.10;;;;;;5132133;27;20042;-79
2022/03/03 09:40:42;;;;;;;5.25;2.72;;;12.00;91.10;;;;;;5112643;27;20476;-79
2022/03/03 09:43:09;;;;;;;3.15;2.38;;;11.90;91.10;;;;;;5130877;27;20039;-80
2022/03/03 09:45:36;;;;;;;4.95;2.80;;;12.00;91.20;;;;;;5131583;27;20480;-79
2022/03/03 09:48:06;;;;;;;5.28;2.75;;;11.90;91.10;;;;;;5131440;27;20039;-79
2022/03/03 09:50:35;;;;;;;4.32;2.53;;;11.90;91.20;;;;;;5131602;27;20365;-79
2022/03/03 09:53:08;;;;;;;4.10;2.75;;;12.00;91.30;;;;;;5130028;27;20047;-80
2022/03/03 09:55:35;;;;;;;3.87;2.50;;;12.00;91.30;;;;;;5112965;27;20020;-79
2022/03/03 09:58:01;;;;;;;4.07;2.78;;;12.00;91.30;;;;;;5131108;27;20046;-79
2022/03/03 10:00:29;;;;;;;6.28;2.97;;;12.00;91.30;;;;;;5131216;27;20027;-79
2022/03/03 10:03:01;;;;;;;5.22;2.80;;;12.10;91.30;;;;;;5132363;27;20011;-78
2022/03/03 10:05:47;;;;;;;3.70;2.45;;;12.10;91.40;;;;;;5132932;27;20027;-79
2022/03/03 10:08:24;;;;;;;6.57;2.83;;;12.10;91.40;;;;;;5131181;27;20035;-79
2022/03/03 10:10:56;;;;;;;4.15;2.40;;;12.20;91.40;;;;;;5131131;27;20038;-79
2022/03/03 10:13:22;;;;;;;5.30;2.83;;;12.20;91.40;;;;;;5131069;27;20023;-79
2022/03/03 10:15:53;;;;;;;4.78;2.50;;;12.10;91.40;;;;;;5129198;27;20502;-79
2022/03/03 10:18:19;;;;;;;3.97;2.65;;;12.20;91.50;;;;;;5108056;28;20019;-79
2022/03/03 10:20:54;;;;;;;3.95;2.25;;;12.20;91.40;;;;;;5110040;27;20019;-79
2022/03/03 10:23:33;;;;;;;3.60;2.20;;;12.20;91.40;;;;;;5114072;27;20129;-79
2022/03/03 10:26:01;;;;;;;6.65;2.78;;;12.20;91.40;;;;;;5112270;27;20034;-79
2022/03/03 10:28:29;;;;;;;3.83;2.30;;;12.20;91.80;;;;;;5135179;27;20031;-80
2022/03/03 10:31:06;;;;;;;4.88;2.72;;;12.20;91.50;;;;;;5112845;28;20069;-79
2022/03/03 10:33:34;;;;;;;4.20;2.50;;;12.20;91.60;;;;;;5120532;27;20032;-79
2022/03/03 10:36:09;;;;;;;4.78;2.72;;;12.20;91.60;;;;;;5134055;27;20034;-79
2022/03/03 10:38:53;;;;;;;5.18;3.15;;;12.30;91.60;;;;;;5120267;27;20079;-79
2022/03/03 10:41:29;;;;;;;6.18;2.97;;;12.30;91.50;;;;;;5131672;27;20065;-79
2022/03/03 10:43:55;;;;;;;5.93;2.45;;;12.30;91.50;;;;;;5115386;27;20046;-79
2022/03/03 10:46:21;;;;;;;3.33;2.63;;;12.30;91.80;;;;;;5139562;27;20023;-80
2022/03/03 10:48:47;;;;;;;3.95;2.58;;;12.30;91.80;;;;;;5131797;27;20441;-79
2022/03/03 10:51:16;;;;;;;5.40;2.53;;;12.30;91.70;;;;;;5140501;27;20039;-79
2022/03/03 10:53:42;;;;;;;4.53;2.92;;;12.30;91.80;;;;;;5134881;27;20027;-80
2022/03/03 10:56:17;;;;;;;4.50;2.78;;;12.40;91.90;;;;;;5116917;27;20075;-78
2022/03/03 10:58:43;;;;;;;4.70;2.67;;;12.40;91.90;;;;;;5131793;27;20036;-78
2022/03/03 11:01:08;;;;;;;4.00;2.45;;;12.40;91.80;;;;;;5112832;28;20050;-78
2022/03/03 11:03:35;;;;;;;3.88;2.90;;;12.40;91.90;;;;;;5139580;27;20027;-79
2022/03/03 11:06:02;;;;;;;4.85;3.03;;;12.40;91.90;;;;;;5114781;27;20022;-80
2022/03/03 11:08:28;;;;;;;5.07;3.15;;;12.50;92.00;;;;;;5138854;27;20027;-80
2022/03/03 11:10:54;;;;;;;3.80;2.85;;;12.50;92.00;;;;;;5114726;28;20052;-80
2022/03/03 11:13:20;;;;;;;5.07;2.83;;;12.50;91.90;;;;;;5131706;27;20023;-79
2022/03/03 11:15:45;;;;;;;3.60;2.78;;;12.60;92.00;;;;;;5140858;27;20114;-80
2022/03/03 11:18:13;;;;;;;3.67;2.72;;;12.60;92.00;;;;;;5131883;27;20059;-80
2022/03/03 11:20:39;;;;;;;4.97;3.42;;;12.60;92.00;;;;;;5140260;27;20022;-79
2022/03/03 11:23:05;;;;;;;5.60;3.30;;;12.60;92.00;;;;;;5133097;27;20019;-80
2022/03/03 11:25:34;;;;;;;5.45;3.42;;;12.60;92.00;;;;;;5131180;27;20046;-80
2022/03/03 11:28:07;;;;;;;4.60;3.35;;;12.70;92.00;;;;;;5129882;27;20110;-80
2022/03/03 11:30:34;;;;;;;5.07;3.13;;;12.70;91.90;;;;;;5133609;27;20554;-80
2022/03/03 11:33:18;;;;;;;5.10;3.03;;;12.70;91.80;;;;;;5126537;27;20018;-80
2022/03/03 11:36:00;;;;;;;4.80;3.78;;;12.70;91.90;;;;;;5138449;27;20392;-80
2022/03/03 11:39:00;;;;;;;4.07;2.90;;;12.70;92.00;;;;;;5122807;27;20066;-80
2022/03/03 11:41:46;;;;;;;4.45;3.35;;;12.70;92.10;;;;;;5136906;27;20031;-80
2022/03/03 11:44:14;;;;;;;5.75;3.28;;;12.80;92.00;;;;;;5118896;27;20188;-80
2022/03/03 11:46:43;;;;;;;3.95;2.85;;;12.80;92.20;;;;;;5140129;27;20023;-79
2022/03/03 11:49:10;;;;;;;4.75;2.80;;;12.90;92.10;;;;;;5133281;27;20098;-80
2022/03/03 11:51:36;;;;;;;4.15;3.00;;;13.00;92.00;;;;;;5123459;27;20101;-79
2022/03/03 11:54:09;;;;;;;3.83;2.75;;;13.10;92.00;;;;;;5150722;27;20057;-79
2022/03/03 11:56:35;;;;;;;3.50;2.70;;;13.20;92.00;;;;;;5137617;27;20023;-79
2022/03/03 11:59:12;;;;;;;4.43;2.80;;;13.20;91.70;;;;;;5118192;27;20035;-79
2022/03/03 12:01:56;;;;;;;2.92;2.30;;;13.20;91.70;;;;;;5124739;27;20026;-78
2022/03/03 12:04:25;;;;;;;3.13;2.50;;;13.20;91.70;;;;;;5127326;27;20028;-80
2022/03/03 12:06:53;;;;;;;3.50;2.50;;;13.20;91.70;;;;;;5127745;27;20019;-79
2022/03/03 12:09:22;;;;;;;2.63;2.33;;;13.20;91.80;;;;;;5136856;27;20024;-78
2022/03/03 12:11:49;;;;;;;3.13;2.72;;;13.20;91.70;;;;;;5135447;27;20425;-78
2022/03/03 12:14:51;;;;;;;3.80;2.50;;;13.30;92.10;;;;;;5131385;27;20058;-78
2022/03/03 12:17:40;;;;;;;3.20;2.35;;;13.30;91.70;;;;;;5030389;28;20042;-77
2022/03/03 12:20:24;;;;;;;3.58;2.67;;;13.30;91.80;;;;;;5037011;28;20053;-77
2022/03/03 12:23:08;;;;;;;3.13;2.42;;;13.30;91.70;;;;;;5035863;28;20062;-79
2022/03/03 12:25:54;;;;;;;3.20;2.50;;;13.40;91.90;;;;;;5036396;28;20038;-79
2022/03/03 12:28:47;;;;;;;2.92;2.50;;;13.40;91.90;;;;;;5035255;28;20415;-77
2022/03/03 12:31:22;;;;;;;3.83;2.20;;;13.50;91.70;;;;;;5022297;28;20045;-77
2022/03/03 12:34:08;;;;;;;3.13;2.40;;;13.50;91.70;;;;;;5013971;28;20450;-78
2022/03/03 12:36:36;;;;;;;2.50;2.30;;;13.50;91.80;;;;;;5030521;28;20053;-78
2022/03/03 12:39:04;;;;;;;4.10;2.60;;;13.40;91.70;;;;;;5030643;28;20528;-79
2022/03/03 12:41:31;;;;;;;3.03;2.40;;;13.40;91.80;;;;;;5028102;28;20029;-79
2022/03/03 12:44:06;;;;;;;4.43;2.83;;;13.40;91.70;;;;;;5012578;28;20154;-80
2022/03/03 12:46:33;;;;;;;3.05;2.33;;;13.30;91.60;;;;;;5027214;28;20037;-81
2022/03/03 12:49:02;;;;;;;3.45;2.45;;;13.30;91.70;;;;;;5039169;28;20071;-80
2022/03/03 12:51:29;;;;;;;3.58;2.35;;;13.20;91.70;;;;;;5103876;27;20040;-80
2022/03/03 12:53:55;;;;;;;1.48;0.90;;;13.10;91.90;;;;;;5141382;27;20015;-82
2022/03/03 12:56:22;;;;;;;0.85;0.63;;;12.60;90.30;;;;;;5142321;27;20559;-81
2022/03/03 12:58:48;;;;;;;1.05;0.50;;;12.20;91.20;;;;;;5130673;27;20534;-81
2022/03/03 13:01:21;;;;;;;1.55;0.55;;;11.80;91.90;;;;;;5142508;27;20031;-81
2022/03/03 13:03:47;;;;;;;1.27;0.40;;;11.50;92.80;;;;;;5143620;27;20546;-81
2022/03/03 13:06:13;;;;;;;1.38;0.30;;;11.20;93.20;;;;;;5139366;27;20106;-81
2022/03/03 13:08:39;;;;;;;0.88;0.40;;;11.10;93.70;;;;;;5148552;27;20054;-80
2022/03/03 13:11:16;;;;;;;1.95;0.32;;;11.00;94.00;;;;;;5132990;27;20023;-81
2022/03/03 13:13:47;;;;;;;0.80;0.30;;;11.00;94.20;;;;;;5123894;27;20033;-82
2022/03/03 13:16:27;;;;;;;1.00;0.25;;;11.00;94.30;;;;;;5138979;27;20467;-80
2022/03/03 13:19:00;;;;;;;1.20;0.40;;;10.90;94.50;;;;;;5138978;27;20031;-80